Time,TemperatureF,DewpointF,PressureIn,WindDirection,WindDirectionDegrees,WindSpeedMPH,WindSpeedGustMPH,Humidity,HourlyPrecipIn,Conditions,Clouds,dailyrainin,SoftwareType,DateUTC
2013-05-11 00:01:00,57.2,54.7,30.00,WNW,290,2.0,4.0,91,0.00,,,0.00,meteohub,2013-05-11 04:01:00,
2013-05-11 00:02:00,57.0,54.5,30.00,WNW,290,1.0,4.0,91,0.00,,,0.00,meteohub,2013-05-11 04:02:00,
2013-05-11 00:03:00,57.0,54.5,30.00,WNW,290,2.0,4.0,91,0.00,,,0.00,meteohub,2013-05-11 04:03:00,
2013-05-11 00:05:00,57.0,54.5,30.00,WNW,290,2.0,4.0,91,0.00,,,0.00,meteohub,2013-05-11 04:05:00,
2013-05-11 00:10:00,56.8,54.5,30.00,WNW,290,2.0,4.0,92,0.00,,,0.00,meteohub,2013-05-11 04:10:00,
2013-05-11 00:15:00,56.8,54.5,30.00,WNW,294,2.0,4.0,92,0.00,,,0.00,meteohub,2013-05-11 04:15:00,
2013-05-11 00:20:00,56.7,54.3,30.01,WNW,294,3.0,4.0,92,0.00,,,0.00,meteohub,2013-05-11 04:20:00,
2013-05-11 00:25:00,56.7,54.3,30.00,WNW,296,3.0,4.0,92,0.00,,,0.00,meteohub,2013-05-11 04:25:00,
2013-05-11 00:30:00,56.7,54.3,30.00,WNW,296,3.0,5.0,92,0.00,,,0.00,meteohub,2013-05-11 04:30:00,
2013-05-11 00:35:00,56.5,54.1,30.00,WNW,293,2.0,5.0,92,0.00,,,0.00,meteohub,2013-05-11 04:35:00,
2013-05-11 00:40:00,56.3,54.3,30.00,WNW,293,1.0,5.0,93,0.00,,,0.00,meteohub,2013-05-11 04:40:00,
2013-05-11 00:45:00,56.3,54.3,30.00,NW,308,2.0,5.0,93,0.00,,,0.00,meteohub,2013-05-11 04:45:00,
2013-05-11 00:51:00,56.1,54.1,30.00,NW,308,3.0,5.0,93,0.00,,,0.00,meteohub,2013-05-11 04:51:00,
2013-05-11 00:56:00,55.9,54.0,30.00,WNW,294,2.0,5.0,93,0.00,,,0.00,meteohub,2013-05-11 04:56:00,
2013-05-11 01:01:00,55.9,54.0,30.00,WNW,294,1.0,4.0,93,0.00,,,0.00,meteohub,2013-05-11 05:01:00,
2013-05-11 01:06:00,55.8,53.8,29.99,WNW,294,1.0,4.0,93,0.00,,,0.00,meteohub,2013-05-11 05:06:00,
2013-05-11 01:11:00,55.6,53.6,30.00,WNW,294,1.0,4.0,93,0.00,,,0.00,meteohub,2013-05-11 05:11:00,
2013-05-11 01:16:00,55.4,53.8,29.99,WNW,294,1.0,3.0,94,0.00,,,0.00,meteohub,2013-05-11 05:16:00,
2013-05-11 01:21:00,55.2,53.6,29.99,WNW,294,1.0,3.0,94,0.00,,,0.00,meteohub,2013-05-11 05:21:00,
2013-05-11 01:26:00,55.2,53.6,29.99,WNW,294,1.0,3.0,94,0.00,,,0.00,meteohub,2013-05-11 05:26:00,
2013-05-11 01:31:00,55.0,53.4,29.99,WNW,294,1.0,3.0,94,0.00,,,0.00,meteohub,2013-05-11 05:31:00,
2013-05-11 01:36:00,55.0,53.4,29.99,WNW,294,2.0,3.0,94,0.00,,,0.00,meteohub,2013-05-11 05:36:00,
2013-05-11 01:41:00,55.0,53.4,29.99,WNW,294,3.0,3.0,94,0.00,,,0.00,meteohub,2013-05-11 05:41:00,
2013-05-11 01:46:00,55.2,53.6,29.98,WNW,292,2.0,3.0,94,0.00,,,0.00,meteohub,2013-05-11 05:46:00,
2013-05-11 01:51:00,55.4,54.0,29.98,West,281,6.0,6.0,95,0.00,,,0.00,meteohub,2013-05-11 05:51:00,
2013-05-11 01:56:00,55.8,54.3,29.98,WNW,286,3.0,6.0,95,0.00,,,0.00,meteohub,2013-05-11 05:56:00,
2013-05-11 02:01:00,55.9,54.5,29.98,WNW,286,2.0,6.0,95,0.00,,,0.00,meteohub,2013-05-11 06:01:00,
2013-05-11 02:07:00,56.1,54.7,29.98,West,273,3.0,6.0,95,0.00,,,0.00,meteohub,2013-05-11 06:07:00,
2013-05-11 02:12:00,56.5,55.0,29.98,WNW,286,2.0,5.0,95,0.00,,,0.00,meteohub,2013-05-11 06:12:00,
2013-05-11 02:17:00,56.7,55.6,29.97,WNW,286,1.0,5.0,96,0.00,,,0.00,meteohub,2013-05-11 06:17:00,
2013-05-11 02:22:00,57.0,55.9,29.97,West,269,3.0,4.0,96,0.00,,,0.00,meteohub,2013-05-11 06:22:00,
2013-05-11 02:27:00,57.4,56.3,29.97,West,268,2.0,5.0,96,0.00,,,0.00,meteohub,2013-05-11 06:27:00,
2013-05-11 02:32:00,57.6,56.5,29.97,West,267,2.0,5.0,96,0.00,,,0.00,meteohub,2013-05-11 06:32:00,
2013-05-11 02:37:00,57.6,56.5,29.97,WNW,288,5.0,5.0,96,0.00,,,0.00,meteohub,2013-05-11 06:37:00,
2013-05-11 02:42:00,57.7,56.7,29.97,WSW,240,3.0,6.0,96,0.00,,,0.00,meteohub,2013-05-11 06:42:00,
2013-05-11 02:47:00,57.6,56.5,29.97,West,277,4.0,7.0,96,0.00,,,0.00,meteohub,2013-05-11 06:47:00,
2013-05-11 02:52:00,57.6,56.5,29.97,West,278,3.0,8.0,96,0.00,,,0.00,meteohub,2013-05-11 06:52:00,
2013-05-11 02:57:00,57.4,56.3,29.97,WSW,257,3.0,8.0,96,0.00,,,0.00,meteohub,2013-05-11 06:57:00,
2013-05-11 03:02:00,57.4,56.3,29.97,WNW,302,4.0,8.0,96,0.00,,,0.00,meteohub,2013-05-11 07:02:00,
2013-05-11 03:07:00,57.4,56.3,29.96,WNW,293,1.0,7.0,96,0.00,,,0.00,meteohub,2013-05-11 07:07:00,
2013-05-11 03:12:00,57.4,56.5,29.96,WNW,290,3.0,7.0,97,0.00,,,0.00,meteohub,2013-05-11 07:12:00,
2013-05-11 03:17:00,57.4,56.5,29.96,West,278,2.0,6.0,97,0.00,,,0.00,meteohub,2013-05-11 07:17:00,
2013-05-11 03:22:00,57.4,56.3,29.96,West,275,4.0,5.0,96,0.00,,,0.00,meteohub,2013-05-11 07:22:00,
2013-05-11 03:27:00,57.4,56.3,29.96,West,275,3.0,7.0,96,0.00,,,0.00,meteohub,2013-05-11 07:27:00,
2013-05-11 03:32:00,57.0,56.1,29.96,WNW,282,4.0,7.0,97,0.00,,,0.00,meteohub,2013-05-11 07:32:00,
2013-05-11 03:37:00,56.8,55.9,29.96,West,269,4.0,7.0,97,0.00,,,0.00,meteohub,2013-05-11 07:37:00,
2013-05-11 03:42:00,56.8,55.9,29.96,West,280,3.0,9.0,97,0.00,,,0.00,meteohub,2013-05-11 07:42:00,
2013-05-11 03:47:00,56.8,55.9,29.95,West,281,2.0,9.0,97,0.00,,,0.00,meteohub,2013-05-11 07:47:00,
2013-05-11 03:52:00,56.7,55.8,29.95,WSW,258,3.0,9.0,97,0.00,,,0.00,meteohub,2013-05-11 07:52:00,
2013-05-11 03:57:00,56.5,55.6,29.95,SW,236,6.0,6.0,97,0.00,,,0.00,meteohub,2013-05-11 07:57:00,
2013-05-11 04:02:00,56.5,55.6,29.95,West,260,3.0,7.0,97,0.00,,,0.00,meteohub,2013-05-11 08:02:00,
2013-05-11 04:07:00,56.5,55.6,29.95,West,281,3.0,7.0,97,0.00,,,0.00,meteohub,2013-05-11 08:07:00,
2013-05-11 04:12:00,56.3,55.4,29.95,WSW,237,3.0,8.0,97,0.00,,,0.00,meteohub,2013-05-11 08:12:00,
2013-05-11 04:17:00,56.1,55.2,29.94,SW,235,4.0,8.0,97,0.00,,,0.00,meteohub,2013-05-11 08:17:00,
2013-05-11 04:22:00,56.1,55.2,29.94,West,275,3.0,9.0,97,0.00,,,0.00,meteohub,2013-05-11 08:22:00,
2013-05-11 04:27:00,56.1,55.2,29.94,West,276,3.0,9.0,97,0.00,,,0.00,meteohub,2013-05-11 08:27:00,
2013-05-11 04:32:00,56.1,55.2,29.94,West,279,3.0,9.0,97,0.00,,,0.00,meteohub,2013-05-11 08:32:00,
2013-05-11 04:37:00,56.1,55.2,29.94,WSW,250,4.0,8.0,97,0.00,,,0.00,meteohub,2013-05-11 08:37:00,
2013-05-11 04:42:00,56.1,55.2,29.94,WSW,240,6.0,8.0,97,0.00,,,0.00,meteohub,2013-05-11 08:42:00,
2013-05-11 04:47:00,56.1,55.2,29.94,West,261,5.0,7.0,97,0.00,,,0.00,meteohub,2013-05-11 08:47:00,
2013-05-11 04:52:00,55.9,55.0,29.94,NW,325,4.0,9.0,97,0.00,,,0.00,meteohub,2013-05-11 08:52:00,
2013-05-11 04:57:00,55.9,55.0,29.94,WSW,240,5.0,9.0,97,0.00,,,0.00,meteohub,2013-05-11 08:57:00,
2013-05-11 05:02:00,55.8,54.9,29.94,WNW,287,7.0,7.0,97,0.00,,,0.00,meteohub,2013-05-11 09:02:00,
2013-05-11 05:07:00,55.8,54.9,29.94,WSW,250,3.0,7.0,97,0.00,,,0.00,meteohub,2013-05-11 09:07:00,
2013-05-11 05:12:00,55.6,54.7,29.94,WSW,253,7.0,7.0,97,0.00,,,0.00,meteohub,2013-05-11 09:12:00,
2013-05-11 05:17:00,55.4,54.5,29.94,WNW,290,4.0,7.0,97,0.00,,,0.00,meteohub,2013-05-11 09:17:00,
2013-05-11 05:22:00,55.2,54.3,29.94,West,261,6.0,7.0,97,0.00,,,0.00,meteohub,2013-05-11 09:22:00,
2013-05-11 05:27:00,55.2,54.3,29.94,WNW,300,4.0,9.0,97,0.00,,,0.00,meteohub,2013-05-11 09:27:00,
2013-05-11 05:32:00,55.2,54.3,29.94,West,268,4.0,9.0,97,0.00,,,0.00,meteohub,2013-05-11 09:32:00,
2013-05-11 05:37:00,55.2,54.7,29.94,West,278,3.0,9.0,98,0.00,,,0.00,meteohub,2013-05-11 09:37:00,
2013-05-11 05:42:00,55.2,54.7,29.94,West,275,5.0,8.0,98,0.00,,,0.00,meteohub,2013-05-11 09:42:00,
2013-05-11 05:47:00,55.4,54.9,29.95,West,278,4.0,9.0,98,0.00,,,0.00,meteohub,2013-05-11 09:47:00,
2013-05-11 05:52:00,55.8,55.2,29.95,West,262,9.0,9.0,98,0.00,,,0.00,meteohub,2013-05-11 09:52:00,
2013-05-11 05:57:00,55.8,55.2,29.95,West,277,8.0,12.0,98,0.00,,,0.00,meteohub,2013-05-11 09:57:00,
2013-05-11 06:02:00,55.9,55.4,29.95,West,281,8.0,12.0,98,0.00,,,0.00,meteohub,2013-05-11 10:02:00,
2013-05-11 06:07:00,56.1,55.6,29.95,WNW,288,8.0,11.0,98,0.00,,,0.00,meteohub,2013-05-11 10:07:00,
2013-05-11 06:12:00,56.1,55.6,29.95,West,262,8.0,13.0,98,0.00,,,0.00,meteohub,2013-05-11 10:12:00,
2013-05-11 06:17:00,56.3,55.8,29.94,West,269,4.0,13.0,98,0.00,,,0.00,meteohub,2013-05-11 10:17:00,
2013-05-11 06:22:00,56.5,55.9,29.94,WNW,294,5.0,13.0,98,0.00,,,0.00,meteohub,2013-05-11 10:22:00,
2013-05-11 06:27:00,56.7,56.1,29.94,NW,310,5.0,10.0,98,0.00,,,0.00,meteohub,2013-05-11 10:27:00,
2013-05-11 06:32:00,56.8,56.3,29.94,West,264,2.0,8.0,98,0.00,,,0.00,meteohub,2013-05-11 10:32:00,
2013-05-11 06:37:00,57.0,56.5,29.94,WSW,250,4.0,8.0,98,0.00,,,0.00,meteohub,2013-05-11 10:37:00,
2013-05-11 06:42:00,57.2,56.7,29.93,West,262,6.0,8.0,98,0.00,,,0.00,meteohub,2013-05-11 10:42:00,
2013-05-11 06:47:00,57.4,56.8,29.93,West,261,4.0,8.0,98,0.00,,,0.00,meteohub,2013-05-11 10:47:00,
2013-05-11 06:52:00,57.4,56.8,29.93,West,271,3.0,6.0,98,0.00,,,0.00,meteohub,2013-05-11 10:52:00,
2013-05-11 06:57:00,57.6,57.0,29.93,West,265,3.0,6.0,98,0.00,,,0.00,meteohub,2013-05-11 10:57:00,
2013-05-11 07:02:00,57.7,57.2,29.93,WNW,285,2.0,6.0,98,0.00,,,0.00,meteohub,2013-05-11 11:02:00,
2013-05-11 07:07:00,57.7,57.2,29.93,West,270,4.0,6.0,98,0.00,,,0.00,meteohub,2013-05-11 11:07:00,
2013-05-11 07:12:00,57.9,57.4,29.94,WNW,292,3.0,8.0,98,0.00,,,0.00,meteohub,2013-05-11 11:12:00,
2013-05-11 07:17:00,57.9,57.4,29.94,NNW,338,9.0,9.0,98,0.00,,,0.00,meteohub,2013-05-11 11:17:00,
2013-05-11 07:22:00,57.7,57.2,29.94,West,279,6.0,10.0,98,0.00,,,0.00,meteohub,2013-05-11 11:22:00,
2013-05-11 07:27:00,57.6,57.0,29.94,NW,315,8.0,10.0,98,0.00,,,0.00,meteohub,2013-05-11 11:27:00,
2013-05-11 07:32:00,57.6,57.0,29.94,WNW,292,4.0,10.0,98,0.00,,,0.00,meteohub,2013-05-11 11:32:00,
2013-05-11 07:37:00,57.6,57.0,29.94,WNW,298,5.0,10.0,98,0.00,,,0.00,meteohub,2013-05-11 11:37:00,
2013-05-11 07:42:00,57.6,57.0,29.94,WNW,297,5.0,9.0,98,0.00,,,0.00,meteohub,2013-05-11 11:42:00,
2013-05-11 07:47:00,57.4,56.8,29.94,SW,228,4.0,9.0,98,0.00,,,0.00,meteohub,2013-05-11 11:47:00,
2013-05-11 07:52:00,57.4,56.8,29.94,WNW,284,5.0,9.0,98,0.00,,,0.00,meteohub,2013-05-11 11:52:00,
2013-05-11 07:57:00,57.4,56.5,29.93,NW,307,5.0,9.0,97,0.00,,,0.00,meteohub,2013-05-11 11:57:00,
2013-05-11 08:02:00,57.6,56.7,29.93,West,279,4.0,7.0,97,0.00,,,0.00,meteohub,2013-05-11 12:02:00,
2013-05-11 08:07:00,57.6,56.7,29.93,West,261,5.0,7.0,97,0.00,,,0.00,meteohub,2013-05-11 12:07:00,
2013-05-11 08:12:00,57.6,56.7,29.93,WNW,290,5.0,8.0,97,0.00,,,0.00,meteohub,2013-05-11 12:12:00,
2013-05-11 08:17:00,57.6,56.7,29.93,West,267,4.0,8.0,97,0.00,,,0.00,meteohub,2013-05-11 12:17:00,
2013-05-11 08:22:00,57.7,56.8,29.93,NW,316,2.0,8.0,97,0.00,,,0.00,meteohub,2013-05-11 12:22:00,
2013-05-11 08:27:00,57.7,56.8,29.93,NW,325,5.0,7.0,97,0.00,,,0.00,meteohub,2013-05-11 12:27:00,
2013-05-11 08:32:00,57.7,56.8,29.92,West,280,9.0,9.0,97,0.00,,,0.00,meteohub,2013-05-11 12:32:00,
2013-05-11 08:37:00,57.7,56.8,29.92,WNW,288,4.0,9.0,97,0.00,,,0.00,meteohub,2013-05-11 12:37:00,
2013-05-11 08:42:00,57.9,57.0,29.92,West,270,10.0,10.0,97,0.00,,,0.00,meteohub,2013-05-11 12:42:00,
2013-05-11 08:47:00,58.1,57.2,29.92,WNW,282,4.0,10.0,97,0.00,,,0.00,meteohub,2013-05-11 12:47:00,
2013-05-11 08:52:00,58.3,57.4,29.92,West,273,7.0,11.0,97,0.00,,,0.00,meteohub,2013-05-11 12:52:00,
2013-05-11 08:57:00,58.5,57.4,29.91,West,268,7.0,11.0,96,0.00,,,0.00,meteohub,2013-05-11 12:57:00,
2013-05-11 09:02:00,58.8,57.7,29.91,West,277,7.0,11.0,96,0.00,,,0.00,meteohub,2013-05-11 13:02:00,
2013-05-11 09:07:00,59.0,57.9,29.91,NW,313,5.0,11.0,96,0.00,,,0.00,meteohub,2013-05-11 13:07:00,
2013-05-11 09:12:00,59.2,57.7,29.91,NW,321,4.0,13.0,95,0.00,,,0.00,meteohub,2013-05-11 13:12:00,
2013-05-11 09:17:00,59.5,58.1,29.91,WSW,243,9.0,13.0,95,0.00,,,0.00,meteohub,2013-05-11 13:17:00,
2013-05-11 09:22:00,59.7,57.9,29.91,WNW,283,5.0,14.0,94,0.00,,,0.00,meteohub,2013-05-11 13:22:00,
2013-05-11 09:27:00,60.3,58.5,29.91,WSW,257,8.0,14.0,94,0.00,,,0.00,meteohub,2013-05-11 13:27:00,
2013-05-11 09:32:00,61.2,59.4,29.91,WNW,302,9.0,14.0,94,0.00,,,0.00,meteohub,2013-05-11 13:32:00,
2013-05-11 09:37:00,61.5,59.2,29.91,NW,308,9.0,13.0,92,0.00,,,0.00,meteohub,2013-05-11 13:37:00,
2013-05-11 09:42:00,61.5,58.8,29.91,West,280,8.0,16.0,91,0.00,,,0.00,meteohub,2013-05-11 13:42:00,
2013-05-11 09:47:00,61.9,59.0,29.91,WNW,298,6.0,16.0,90,0.00,,,0.00,meteohub,2013-05-11 13:47:00,
2013-05-11 09:52:00,61.9,59.0,29.91,WNW,285,10.0,16.0,90,0.00,,,0.00,meteohub,2013-05-11 13:52:00,
2013-05-11 09:57:00,62.1,59.2,29.91,West,274,4.0,16.0,90,0.00,,,0.00,meteohub,2013-05-11 13:57:00,
2013-05-11 10:02:00,62.2,59.0,29.91,West,264,10.0,14.0,89,0.00,,,0.00,meteohub,2013-05-11 14:02:00,
2013-05-11 10:07:00,62.2,59.0,29.91,WNW,296,10.0,14.0,89,0.00,,,0.00,meteohub,2013-05-11 14:07:00,
2013-05-11 10:12:00,62.2,58.6,29.91,NNW,333,10.0,15.0,88,0.00,,,0.00,meteohub,2013-05-11 14:12:00,
2013-05-11 10:17:00,62.2,58.6,29.91,NNW,331,11.0,15.0,88,0.00,,,0.00,meteohub,2013-05-11 14:17:00,
2013-05-11 10:22:00,62.2,58.6,29.92,West,277,10.0,15.0,88,0.00,,,0.00,meteohub,2013-05-11 14:22:00,
2013-05-11 10:27:00,62.1,58.5,29.92,WNW,294,8.0,15.0,88,0.00,,,0.00,meteohub,2013-05-11 14:27:00,
2013-05-11 10:32:00,62.1,58.5,29.92,West,279,5.0,15.0,88,0.00,,,0.00,meteohub,2013-05-11 14:32:00,
2013-05-11 10:37:00,61.9,58.3,29.92,WNW,298,8.0,15.0,88,0.00,,,0.00,meteohub,2013-05-11 14:37:00,
2013-05-11 10:42:00,61.9,58.3,29.91,WNW,288,12.0,17.0,88,0.00,,,0.00,meteohub,2013-05-11 14:42:00,
2013-05-11 10:47:00,61.9,58.6,29.91,West,271,7.0,17.0,89,0.00,,,0.00,meteohub,2013-05-11 14:47:00,
2013-05-11 10:52:00,62.1,58.5,29.92,NW,318,11.0,17.0,88,0.00,,,0.00,meteohub,2013-05-11 14:52:00,
2013-05-11 10:57:00,62.1,58.1,29.92,WNW,303,5.0,17.0,87,0.00,,,0.00,meteohub,2013-05-11 14:57:00,
2013-05-11 11:02:00,62.1,58.1,29.92,WNW,286,9.0,17.0,87,0.00,,,0.00,meteohub,2013-05-11 15:02:00,
2013-05-11 11:07:00,62.1,58.1,29.92,West,277,11.0,19.0,87,0.00,,,0.00,meteohub,2013-05-11 15:07:00,
2013-05-11 11:12:00,62.1,58.1,29.92,NW,310,12.0,19.0,87,0.00,,,0.00,meteohub,2013-05-11 15:12:00,
2013-05-11 11:17:00,62.4,58.5,29.91,West,274,8.0,18.0,87,0.00,,,0.00,meteohub,2013-05-11 15:17:00,
2013-05-11 11:22:00,62.8,58.8,29.91,West,278,10.0,17.0,87,0.00,,,0.00,meteohub,2013-05-11 15:22:00,
2013-05-11 11:27:00,63.1,58.8,29.92,NNW,333,4.0,17.0,86,0.00,,,0.00,meteohub,2013-05-11 15:27:00,
2013-05-11 11:32:00,63.1,58.6,29.91,WNW,288,7.0,17.0,85,0.00,,,0.00,meteohub,2013-05-11 15:32:00,
2013-05-11 11:37:00,63.1,58.8,29.91,NNW,337,9.0,20.0,86,0.00,,,0.00,meteohub,2013-05-11 15:37:00,
2013-05-11 11:42:00,63.9,59.5,29.91,WNW,301,7.0,20.0,86,0.00,,,0.00,meteohub,2013-05-11 15:42:00,
2013-05-11 11:47:00,64.6,59.9,29.90,WNW,288,11.0,23.0,85,0.00,,,0.00,meteohub,2013-05-11 15:47:00,
2013-05-11 11:52:00,65.1,59.9,29.90,WSW,252,9.0,23.0,83,0.00,,,0.00,meteohub,2013-05-11 15:52:00,
2013-05-11 11:57:00,65.7,60.1,29.90,WNW,295,7.0,23.0,82,0.00,,,0.00,meteohub,2013-05-11 15:57:00,
2013-05-11 12:02:00,65.3,59.7,29.90,NW,309,11.0,19.0,82,0.00,,,0.00,meteohub,2013-05-11 16:02:00,
2013-05-11 12:07:00,64.9,59.7,29.89,West,260,8.0,17.0,83,0.00,,,0.00,meteohub,2013-05-11 16:07:00,
2013-05-11 12:12:00,64.6,59.4,29.89,West,272,5.0,17.0,83,0.00,,,0.00,meteohub,2013-05-11 16:12:00,
2013-05-11 12:17:00,64.6,59.4,29.89,WNW,287,7.0,16.0,83,0.00,,,0.00,meteohub,2013-05-11 16:17:00,
2013-05-11 12:22:00,64.2,59.0,29.88,WNW,282,10.0,17.0,83,0.00,,,0.00,meteohub,2013-05-11 16:22:00,
2013-05-11 12:27:00,64.0,58.8,29.88,WNW,291,10.0,18.0,83,0.00,,,0.00,meteohub,2013-05-11 16:27:00,
2013-05-11 12:32:00,64.0,59.2,29.88,WNW,294,6.0,18.0,84,0.00,,,0.00,meteohub,2013-05-11 16:32:00,
2013-05-11 12:37:00,63.9,59.0,29.88,West,269,8.0,18.0,84,0.00,,,0.00,meteohub,2013-05-11 16:37:00,
2013-05-11 12:42:00,63.5,58.6,29.88,WNW,296,7.0,17.0,84,0.00,,,0.00,meteohub,2013-05-11 16:42:00,
2013-05-11 12:47:00,63.7,58.8,29.88,West,276,7.0,17.0,84,0.00,,,0.00,meteohub,2013-05-11 16:47:00,
2013-05-11 12:52:00,63.9,59.0,29.88,NW,315,8.0,17.0,84,0.00,,,0.00,meteohub,2013-05-11 16:52:00,
2013-05-11 12:57:00,63.9,58.6,29.88,WNW,289,5.0,15.0,83,0.00,,,0.00,meteohub,2013-05-11 16:57:00,
2013-05-11 13:02:00,64.0,58.8,29.87,West,277,5.0,15.0,83,0.00,,,0.00,meteohub,2013-05-11 17:02:00,
2013-05-11 13:07:00,64.0,58.8,29.88,NW,304,10.0,11.0,83,0.00,,,0.00,meteohub,2013-05-11 17:07:00,
2013-05-11 13:12:00,64.0,58.8,29.88,WSW,250,5.0,10.0,83,0.00,,,0.00,meteohub,2013-05-11 17:12:00,
2013-05-11 13:17:00,64.0,58.5,29.88,West,265,11.0,11.0,82,0.00,,,0.00,meteohub,2013-05-11 17:17:00,
2013-05-11 13:22:00,64.2,58.3,29.89,NNW,329,11.0,16.0,81,0.00,,,0.00,meteohub,2013-05-11 17:22:00,
2013-05-11 13:27:00,64.0,58.1,29.90,WNW,284,11.0,17.0,81,0.00,,,0.00,meteohub,2013-05-11 17:27:00,
2013-05-11 13:32:00,63.5,58.3,29.89,WSW,237,5.0,17.0,83,0.01,,,0.01,meteohub,2013-05-11 17:32:00,
2013-05-11 13:37:00,63.7,58.5,29.90,West,272,12.0,17.0,83,0.01,,,0.01,meteohub,2013-05-11 17:37:00,
2013-05-11 13:42:00,64.2,59.0,29.89,West,279,12.0,14.0,83,0.01,,,0.01,meteohub,2013-05-11 17:42:00,
2013-05-11 13:47:00,64.9,59.4,29.89,SW,234,6.0,17.0,82,0.01,,,0.01,meteohub,2013-05-11 17:47:00,
2013-05-11 13:52:00,65.5,59.5,29.89,WNW,290,18.0,18.0,81,0.01,,,0.01,meteohub,2013-05-11 17:52:00,
2013-05-11 13:57:00,65.8,59.9,29.89,West,272,11.0,18.0,81,0.01,,,0.01,meteohub,2013-05-11 17:57:00,
2013-05-11 14:02:00,65.7,59.4,29.90,NNW,342,6.0,19.0,80,0.01,,,0.01,meteohub,2013-05-11 18:02:00,
2013-05-11 14:07:00,65.5,59.5,29.89,NW,320,10.0,22.0,81,0.01,,,0.01,meteohub,2013-05-11 18:07:00,
2013-05-11 14:12:00,64.9,59.0,29.90,NW,311,11.0,22.0,81,0.01,,,0.01,meteohub,2013-05-11 18:12:00,
2013-05-11 14:17:00,64.8,59.2,29.89,NW,314,12.0,22.0,82,0.01,,,0.01,meteohub,2013-05-11 18:17:00,
2013-05-11 14:22:00,64.8,59.5,29.89,NW,311,10.0,20.0,83,0.01,,,0.01,meteohub,2013-05-11 18:22:00,
2013-05-11 14:27:00,64.2,59.4,29.89,NW,312,13.0,20.0,84,0.01,,,0.01,meteohub,2013-05-11 18:27:00,
2013-05-11 14:32:00,63.7,59.4,29.89,WNW,285,5.0,21.0,86,0.00,,,0.01,meteohub,2013-05-11 18:32:00,
2013-05-11 14:37:00,63.0,59.0,29.89,WSW,249,11.0,21.0,87,0.01,,,0.02,meteohub,2013-05-11 18:37:00,
2013-05-11 14:42:00,62.2,59.0,29.89,West,281,8.0,21.0,89,0.01,,,0.02,meteohub,2013-05-11 18:42:00,
2013-05-11 14:47:00,61.9,59.0,29.89,WNW,286,17.0,17.0,90,0.01,,,0.02,meteohub,2013-05-11 18:47:00,
2013-05-11 14:52:00,61.3,58.6,29.89,West,268,13.0,19.0,91,0.02,,,0.03,meteohub,2013-05-11 18:52:00,
2013-05-11 14:57:00,61.3,59.0,29.89,West,270,14.0,19.0,92,0.02,,,0.03,meteohub,2013-05-11 18:57:00,
2013-05-11 15:02:00,61.3,59.0,29.89,WNW,299,11.0,19.0,92,0.02,,,0.03,meteohub,2013-05-11 19:02:00,
2013-05-11 15:07:00,61.2,59.2,29.88,WNW,282,4.0,18.0,93,0.02,,,0.03,meteohub,2013-05-11 19:07:00,
2013-05-11 15:12:00,61.0,59.0,29.88,NNW,333,7.0,18.0,93,0.02,,,0.03,meteohub,2013-05-11 19:12:00,
2013-05-11 15:17:00,60.6,58.6,29.88,West,268,9.0,24.0,93,0.02,,,0.03,meteohub,2013-05-11 19:17:00,
2013-05-11 15:22:00,60.4,58.6,29.88,WNW,290,6.0,24.0,94,0.04,,,0.04,meteohub,2013-05-11 19:22:00,
2013-05-11 15:27:00,60.4,58.6,29.88,WNW,298,4.0,24.0,94,0.04,,,0.05,meteohub,2013-05-11 19:27:00,
2013-05-11 15:32:00,60.4,58.6,29.88,NNW,332,9.0,16.0,94,0.05,,,0.07,meteohub,2013-05-11 19:32:00,
2013-05-11 15:37:00,60.6,59.2,29.87,West,267,11.0,16.0,95,0.06,,,0.08,meteohub,2013-05-11 19:37:00,
2013-05-11 15:42:00,60.8,59.4,29.87,WNW,297,7.0,16.0,95,0.07,,,0.09,meteohub,2013-05-11 19:42:00,
2013-05-11 15:47:00,61.0,59.5,29.87,WNW,290,5.0,18.0,95,0.07,,,0.10,meteohub,2013-05-11 19:47:00,
2013-05-11 15:52:00,61.2,59.7,29.88,NW,310,7.0,18.0,95,0.07,,,0.10,meteohub,2013-05-11 19:52:00,
2013-05-11 15:57:00,60.8,59.4,29.88,West,277,7.0,18.0,95,0.08,,,0.11,meteohub,2013-05-11 19:57:00,
2013-05-11 16:02:00,60.6,59.2,29.87,NW,306,10.0,18.0,95,0.08,,,0.11,meteohub,2013-05-11 20:02:00,
2013-05-11 16:07:00,60.8,59.4,29.86,West,267,7.0,18.0,95,0.08,,,0.11,meteohub,2013-05-11 20:07:00,
2013-05-11 16:12:00,60.6,59.2,29.86,West,277,3.0,18.0,95,0.08,,,0.11,meteohub,2013-05-11 20:12:00,
2013-05-11 16:17:00,60.6,59.2,29.86,WNW,286,5.0,18.0,95,0.08,,,0.12,meteohub,2013-05-11 20:17:00,
2013-05-11 16:22:00,60.6,59.2,29.86,WNW,284,5.0,15.0,95,0.08,,,0.13,meteohub,2013-05-11 20:22:00,
2013-05-11 16:27:00,60.6,59.2,29.86,West,271,4.0,15.0,95,0.07,,,0.13,meteohub,2013-05-11 20:27:00,
2013-05-11 16:32:00,60.6,59.2,29.86,West,278,9.0,12.0,95,0.06,,,0.13,meteohub,2013-05-11 20:32:00,
2013-05-11 16:37:00,60.6,59.2,29.86,West,265,12.0,14.0,95,0.04,,,0.13,meteohub,2013-05-11 20:37:00,
2013-05-11 16:42:00,60.3,58.8,29.86,WSW,238,16.0,16.0,95,0.03,,,0.13,meteohub,2013-05-11 20:42:00,
2013-05-11 16:47:00,60.1,58.6,29.86,WNW,296,8.0,17.0,95,0.04,,,0.14,meteohub,2013-05-11 20:47:00,
2013-05-11 16:52:00,59.7,58.3,29.85,WSW,242,8.0,17.0,95,0.03,,,0.14,meteohub,2013-05-11 20:52:00,
2013-05-11 16:57:00,59.5,58.5,29.85,WNW,290,7.0,19.0,96,0.04,,,0.15,meteohub,2013-05-11 20:57:00,
2013-05-11 17:02:00,59.5,58.5,29.83,WSW,257,8.0,20.0,96,0.04,,,0.15,meteohub,2013-05-11 21:02:00,
2013-05-11 17:07:00,59.5,58.5,29.83,WNW,299,11.0,20.0,96,0.04,,,0.15,meteohub,2013-05-11 21:07:00,
2013-05-11 17:12:00,59.5,58.5,29.83,West,270,8.0,16.0,96,0.03,,,0.15,meteohub,2013-05-11 21:12:00,
2013-05-11 17:17:00,59.7,58.6,29.83,WSW,255,9.0,16.0,96,0.03,,,0.15,meteohub,2013-05-11 21:17:00,
2013-05-11 17:22:00,59.5,58.5,29.83,West,263,4.0,17.0,96,0.02,,,0.15,meteohub,2013-05-11 21:22:00,
2013-05-11 17:27:00,59.5,58.5,29.83,West,269,13.0,17.0,96,0.02,,,0.15,meteohub,2013-05-11 21:27:00,
2013-05-11 17:32:00,59.5,58.5,29.84,NW,313,8.0,17.0,96,0.02,,,0.15,meteohub,2013-05-11 21:32:00,
2013-05-11 17:37:00,59.5,58.5,29.83,West,266,9.0,16.0,96,0.02,,,0.15,meteohub,2013-05-11 21:37:00,
2013-05-11 17:42:00,59.5,58.5,29.84,West,261,5.0,16.0,96,0.02,,,0.15,meteohub,2013-05-11 21:42:00,
2013-05-11 17:47:00,59.5,58.5,29.84,WSW,255,5.0,16.0,96,0.01,,,0.15,meteohub,2013-05-11 21:47:00,
2013-05-11 17:52:00,59.7,58.6,29.84,West,273,7.0,16.0,96,0.00,,,0.15,meteohub,2013-05-11 21:52:00,
2013-05-11 17:57:00,60.1,59.0,29.85,WNW,294,7.0,15.0,96,0.00,,,0.15,meteohub,2013-05-11 21:57:00,
2013-05-11 18:02:00,60.3,59.2,29.85,West,269,11.0,15.0,96,0.00,,,0.15,meteohub,2013-05-11 22:02:00,
2013-05-11 18:07:00,60.4,59.4,29.85,NW,306,5.0,15.0,96,0.00,,,0.15,meteohub,2013-05-11 22:07:00,
2013-05-11 18:12:00,60.3,59.2,29.85,NW,313,6.0,17.0,96,0.00,,,0.15,meteohub,2013-05-11 22:12:00,
2013-05-11 18:17:00,60.3,59.2,29.85,WSW,238,9.0,17.0,96,0.00,,,0.15,meteohub,2013-05-11 22:17:00,
2013-05-11 18:22:00,60.3,59.2,29.85,WSW,253,9.0,15.0,96,0.00,,,0.15,meteohub,2013-05-11 22:22:00,
2013-05-11 18:27:00,59.9,58.8,29.85,West,259,6.0,15.0,96,0.00,,,0.15,meteohub,2013-05-11 22:27:00,
2013-05-11 18:32:00,59.9,58.8,29.85,West,264,9.0,13.0,96,0.00,,,0.15,meteohub,2013-05-11 22:32:00,
2013-05-11 18:37:00,59.9,58.8,29.85,WSW,250,11.0,13.0,96,0.00,,,0.15,meteohub,2013-05-11 22:37:00,
2013-05-11 18:42:00,59.7,58.6,29.85,WNW,283,6.0,14.0,96,0.00,,,0.15,meteohub,2013-05-11 22:42:00,
2013-05-11 18:47:00,59.5,58.5,29.85,West,281,8.0,14.0,96,0.00,,,0.15,meteohub,2013-05-11 22:47:00,
2013-05-11 18:52:00,59.4,58.3,29.85,NW,317,8.0,14.0,96,0.00,,,0.15,meteohub,2013-05-11 22:52:00,
2013-05-11 18:57:00,59.4,58.3,29.85,WSW,245,7.0,17.0,96,0.00,,,0.15,meteohub,2013-05-11 22:57:00,
2013-05-11 19:02:00,59.4,58.3,29.85,WNW,292,5.0,17.0,96,0.00,,,0.15,meteohub,2013-05-11 23:02:00,
2013-05-11 19:07:00,59.4,58.3,29.85,West,278,5.0,17.0,96,0.00,,,0.15,meteohub,2013-05-11 23:07:00,
2013-05-11 19:12:00,59.4,58.3,29.84,West,274,4.0,11.0,96,0.00,,,0.15,meteohub,2013-05-11 23:12:00,
2013-05-11 19:17:00,59.4,58.3,29.84,West,281,6.0,10.0,96,0.00,,,0.15,meteohub,2013-05-11 23:17:00,
2013-05-11 19:22:00,59.4,58.3,29.84,West,270,5.0,10.0,96,0.00,,,0.15,meteohub,2013-05-11 23:22:00,
2013-05-11 19:27:00,59.7,58.6,29.84,WNW,293,9.0,14.0,96,0.00,,,0.15,meteohub,2013-05-11 23:27:00,
2013-05-11 19:32:00,59.7,58.6,29.84,West,279,4.0,14.0,96,0.00,,,0.15,meteohub,2013-05-11 23:32:00,
2013-05-11 19:37:00,59.9,58.8,29.84,WNW,284,8.0,14.0,96,0.00,,,0.15,meteohub,2013-05-11 23:37:00,
2013-05-11 19:42:00,60.1,59.0,29.84,NNW,340,6.0,13.0,96,0.00,,,0.15,meteohub,2013-05-11 23:42:00,
2013-05-11 19:47:00,59.9,58.8,29.84,WSW,253,8.0,14.0,96,0.00,,,0.15,meteohub,2013-05-11 23:47:00,
2013-05-11 19:52:00,59.7,58.6,29.83,NW,309,6.0,14.0,96,0.01,,,0.16,meteohub,2013-05-11 23:52:00,
2013-05-11 19:57:00,59.9,59.0,29.83,West,263,5.0,14.0,97,0.01,,,0.16,meteohub,2013-05-11 23:57:00,
2013-05-11 20:02:00,60.1,59.2,29.83,West,269,7.0,12.0,97,0.01,,,0.16,meteohub,2013-05-12 00:02:00,
2013-05-11 20:07:00,60.4,59.5,29.83,WNW,300,6.0,12.0,97,0.01,,,0.16,meteohub,2013-05-12 00:07:00,
2013-05-11 20:12:00,60.8,59.9,29.83,WSW,255,10.0,18.0,97,0.01,,,0.16,meteohub,2013-05-12 00:12:00,
2013-05-11 20:17:00,61.2,60.3,29.84,WNW,290,6.0,18.0,97,0.01,,,0.16,meteohub,2013-05-12 00:17:00,
2013-05-11 20:22:00,61.2,60.3,29.83,WSW,255,5.0,18.0,97,0.02,,,0.17,meteohub,2013-05-12 00:22:00,
2013-05-11 20:27:00,61.3,60.4,29.82,WNW,294,6.0,16.0,97,0.06,,,0.21,meteohub,2013-05-12 00:27:00,
2013-05-11 20:32:00,61.2,60.3,29.81,West,269,8.0,13.0,97,0.06,,,0.21,meteohub,2013-05-12 00:32:00,
2013-05-11 20:37:00,60.8,59.9,29.81,SW,228,14.0,18.0,97,0.07,,,0.22,meteohub,2013-05-12 00:37:00,
2013-05-11 20:42:00,60.6,59.7,29.82,NW,304,6.0,18.0,97,0.07,,,0.22,meteohub,2013-05-12 00:42:00,
2013-05-11 20:47:00,60.4,59.5,29.81,West,264,13.0,18.0,97,0.07,,,0.22,meteohub,2013-05-12 00:47:00,
2013-05-11 20:52:00,60.3,59.4,29.81,WNW,283,9.0,19.0,97,0.06,,,0.22,meteohub,2013-05-12 00:52:00,
2013-05-11 20:57:00,60.3,59.4,29.82,WNW,286,12.0,19.0,97,0.06,,,0.22,meteohub,2013-05-12 00:57:00,
2013-05-11 21:02:00,60.3,59.4,29.83,WNW,290,9.0,16.0,97,0.06,,,0.22,meteohub,2013-05-12 01:02:00,
2013-05-11 21:07:00,60.3,59.4,29.83,WNW,286,9.0,16.0,97,0.06,,,0.22,meteohub,2013-05-12 01:07:00,
2013-05-11 21:12:00,60.3,59.4,29.83,NW,320,11.0,16.0,97,0.06,,,0.22,meteohub,2013-05-12 01:12:00,
2013-05-11 21:17:00,60.3,59.4,29.84,NW,314,6.0,16.0,97,0.06,,,0.22,meteohub,2013-05-12 01:17:00,
2013-05-11 21:22:00,60.1,59.2,29.84,WSW,244,5.0,16.0,97,0.04,,,0.23,meteohub,2013-05-12 01:22:00,
2013-05-11 21:27:00,60.3,59.4,29.84,NW,317,7.0,16.0,97,0.05,,,0.26,meteohub,2013-05-12 01:27:00,
2013-05-11 21:32:00,60.1,59.2,29.84,NW,317,6.0,16.0,97,0.05,,,0.26,meteohub,2013-05-12 01:32:00,
2013-05-11 21:37:00,60.3,59.4,29.85,WNW,286,4.0,16.0,97,0.09,,,0.31,meteohub,2013-05-12 01:37:00,
2013-05-11 21:42:00,60.3,59.4,29.84,West,271,5.0,15.0,97,0.12,,,0.34,meteohub,2013-05-12 01:42:00,
2013-05-11 21:47:00,60.3,59.4,29.84,WSW,251,4.0,13.0,97,0.14,,,0.36,meteohub,2013-05-12 01:47:00,
2013-05-11 21:52:00,60.4,59.5,29.83,West,273,8.0,9.0,97,0.15,,,0.37,meteohub,2013-05-12 01:52:00,
2013-05-11 21:57:00,60.4,59.5,29.83,NW,305,5.0,10.0,97,0.15,,,0.37,meteohub,2013-05-12 01:57:00,
2013-05-11 22:02:00,60.4,59.5,29.84,West,269,3.0,10.0,97,0.17,,,0.39,meteohub,2013-05-12 02:02:00,
2013-05-11 22:07:00,60.4,59.5,29.83,West,270,6.0,10.0,97,0.18,,,0.40,meteohub,2013-05-12 02:07:00,
2013-05-11 22:12:00,60.3,59.4,29.83,NW,311,5.0,10.0,97,0.19,,,0.41,meteohub,2013-05-12 02:12:00,
2013-05-11 22:17:00,60.1,59.2,29.83,NW,304,11.0,14.0,97,0.19,,,0.41,meteohub,2013-05-12 02:17:00,
2013-05-11 22:22:00,60.3,59.7,29.83,WNW,285,7.0,14.0,98,0.18,,,0.42,meteohub,2013-05-12 02:22:00,
2013-05-11 22:27:00,60.1,59.2,29.83,NW,308,6.0,16.0,97,0.17,,,0.43,meteohub,2013-05-12 02:27:00,
2013-05-11 22:32:00,59.9,59.0,29.82,NW,318,5.0,16.0,97,0.16,,,0.43,meteohub,2013-05-12 02:32:00,
2013-05-11 22:37:00,59.9,59.0,29.82,WNW,299,4.0,13.0,97,0.12,,,0.43,meteohub,2013-05-12 02:37:00,
2013-05-11 22:42:00,59.7,58.8,29.82,WNW,294,7.0,13.0,97,0.09,,,0.44,meteohub,2013-05-12 02:42:00,
2013-05-11 22:47:00,59.7,58.8,29.82,West,263,4.0,10.0,97,0.10,,,0.47,meteohub,2013-05-12 02:47:00,
2013-05-11 22:52:00,59.7,58.8,29.81,WNW,285,4.0,10.0,97,0.10,,,0.47,meteohub,2013-05-12 02:52:00,
2013-05-11 22:57:00,59.7,58.8,29.81,West,270,5.0,9.0,97,0.10,,,0.48,meteohub,2013-05-12 02:57:00,
2013-05-11 23:02:00,59.7,58.8,29.81,NW,325,7.0,13.0,97,0.09,,,0.48,meteohub,2013-05-12 03:02:00,
2013-05-11 23:07:00,59.5,58.6,29.81,West,266,6.0,13.0,97,0.08,,,0.49,meteohub,2013-05-12 03:07:00,
2013-05-11 23:12:00,59.4,58.5,29.81,WNW,285,4.0,13.0,97,0.09,,,0.50,meteohub,2013-05-12 03:12:00,
2013-05-11 23:17:00,59.2,58.3,29.80,West,259,5.0,13.0,97,0.09,,,0.51,meteohub,2013-05-12 03:17:00,
2013-05-11 23:22:00,59.2,58.3,29.80,West,261,6.0,13.0,97,0.09,,,0.52,meteohub,2013-05-12 03:22:00,
2013-05-11 23:27:00,59.0,58.5,29.80,West,261,3.0,12.0,98,0.10,,,0.53,meteohub,2013-05-12 03:27:00,
2013-05-11 23:32:00,59.2,58.6,29.79,West,263,8.0,12.0,98,0.10,,,0.53,meteohub,2013-05-12 03:32:00,
2013-05-11 23:37:00,59.0,58.5,29.79,NW,308,7.0,12.0,98,0.11,,,0.55,meteohub,2013-05-12 03:37:00,
2013-05-11 23:42:00,58.8,58.3,29.79,West,262,6.0,12.0,98,0.11,,,0.56,meteohub,2013-05-12 03:42:00,
2013-05-11 23:47:00,58.8,58.3,29.79,NW,313,5.0,11.0,98,0.10,,,0.57,meteohub,2013-05-12 03:47:00,
2013-05-11 23:52:00,58.8,57.9,29.78,West,267,6.0,10.0,97,0.12,,,0.59,meteohub,2013-05-12 03:52:00,
2013-05-11 23:57:00,58.8,57.9,29.79,West,274,3.0,10.0,97,0.12,,,0.60,meteohub,2013-05-12 03:57:00,